Time;durP1;ratioP1;P1;durP2;ratioP2;P2;SDS_P1;SDS_P2;PMS_P1;PMS_P2;Temp;Humidity;BMP_temperature;BMP_pressure;BME280_temperature;BME280_humidity;BME280_pressure;Samples;Min_cycle;Max_cycle;Signal;HPM_P1;HPM_P2
2024/02/07 00:00:48;;;;;;;16.85;5.78;;;10.30;99.90;;;;;;5069915;28;20128;-50
2024/02/07 00:03:14;;;;;;;12.35;5.93;;;10.30;99.90;;;;;;5069981;28;20457;-51
2024/02/07 00:05:39;;;;;;;19.02;5.97;;;10.30;99.90;;;;;;5071185;28;20099;-51
2024/02/07 00:08:05;;;;;;;19.35;7.30;;;10.30;99.90;;;;;;5069508;28;20082;-52
2024/02/07 00:10:32;;;;;;;14.88;6.22;;;10.30;99.90;;;;;;5068263;28;20027;-50
2024/02/07 00:12:57;;;;;;;13.40;6.28;;;10.20;99.90;;;;;;5069219;28;20074;-53
2024/02/07 00:15:23;;;;;;;21.60;8.07;;;10.20;99.90;;;;;;5069674;28;20020;-50
2024/02/07 00:17:49;;;;;;;21.70;7.05;;;10.20;99.90;;;;;;5069636;28;20165;-51
2024/02/07 00:20:15;;;;;;;17.42;6.93;;;10.20;99.90;;;;;;5068349;28;20430;-49
2024/02/07 00:22:40;;;;;;;16.50;6.80;;;10.10;99.90;;;;;;5068201;28;20024;-49
2024/02/07 00:25:07;;;;;;;20.63;6.93;;;10.20;99.90;;;;;;5069916;28;20023;-52
2024/02/07 00:27:33;;;;;;;14.02;6.25;;;10.10;99.90;;;;;;5068844;28;20025;-50
2024/02/07 00:29:59;;;;;;;12.55;6.35;;;10.10;99.90;;;;;;5069864;28;20426;-49
2024/02/07 00:32:25;;;;;;;11.57;2.67;;;10.10;99.90;;;;;;5068508;28;20016;-49
2024/02/07 00:34:51;;;;;;;4.80;2.10;;;9.90;99.90;;;;;;5069987;28;20021;-51
2024/02/07 00:37:17;;;;;;;2.25;1.27;;;9.60;99.90;;;;;;5062020;28;20104;-53
2024/02/07 00:39:44;;;;;;;2.20;1.20;;;9.40;99.90;;;;;;5070341;28;20020;-50
2024/02/07 00:42:10;;;;;;;0.82;0.82;;;9.20;99.90;;;;;;5069091;28;20083;-50
2024/02/07 00:44:39;;;;;;;0.88;0.88;;;9.00;99.90;;;;;;5067242;28;20020;-49
2024/02/07 00:47:05;;;;;;;2.90;0.70;;;8.80;99.90;;;;;;5069422;28;20031;-52
2024/02/07 00:49:31;;;;;;;0.82;0.75;;;8.70;99.90;;;;;;5068258;28;20047;-53
2024/02/07 00:51:57;;;;;;;1.77;0.77;;;8.60;99.90;;;;;;5068962;28;20082;-51
2024/02/07 00:54:24;;;;;;;1.35;0.80;;;8.50;99.90;;;;;;5068409;28;20020;-52
2024/02/07 00:56:50;;;;;;;0.95;0.85;;;8.50;99.90;;;;;;5069375;28;20335;-51
2024/02/07 00:59:15;;;;;;;0.77;0.70;;;8.40;99.90;;;;;;5067908;28;20028;-51
2024/02/07 01:01:41;;;;;;;1.10;1.00;;;8.20;99.90;;;;;;5069252;28;20107;-49
2024/02/07 01:04:06;;;;;;;1.40;0.80;;;8.10;99.90;;;;;;5068419;28;20085;-52
2024/02/07 01:06:32;;;;;;;3.20;0.60;;;8.00;99.90;;;;;;5067238;28;20029;-48
2024/02/07 01:08:58;;;;;;;2.15;0.65;;;7.80;99.90;;;;;;5069098;28;20024;-49
2024/02/07 01:11:23;;;;;;;0.73;0.60;;;7.70;99.90;;;;;;5067987;28;20012;-51
2024/02/07 01:13:49;;;;;;;1.27;0.70;;;7.60;99.90;;;;;;5068998;28;20468;-50
2024/02/07 01:16:15;;;;;;;0.70;0.50;;;7.50;99.90;;;;;;5084136;28;20031;-52
2024/02/07 01:18:41;;;;;;;2.75;0.80;;;7.40;99.90;;;;;;5068961;28;20030;-49
2024/02/07 01:21:08;;;;;;;2.05;0.70;;;7.30;99.90;;;;;;5068767;28;20424;-52
2024/02/07 01:23:34;;;;;;;1.13;0.40;;;7.20;99.90;;;;;;5068746;28;20033;-53
2024/02/07 01:26:01;;;;;;;2.58;1.00;;;7.10;99.90;;;;;;5068478;28;20112;-49
2024/02/07 01:28:27;;;;;;;7.10;0.90;;;7.10;99.90;;;;;;5067169;28;20029;-52
2024/02/07 01:30:53;;;;;;;4.70;0.60;;;7.00;99.90;;;;;;5068619;28;20398;-51
2024/02/07 01:33:19;;;;;;;5.30;1.00;;;7.00;99.90;;;;;;5068523;28;20021;-50
2024/02/07 01:35:46;;;;;;;2.58;1.13;;;7.00;99.90;;;;;;5068951;28;20515;-53
2024/02/07 01:38:17;;;;;;;6.03;1.27;;;6.90;99.90;;;;;;5068532;28;20060;-49
2024/02/07 01:40:48;;;;;;;3.53;0.98;;;6.80;99.90;;;;;;5068647;28;20028;-51
2024/02/07 01:43:14;;;;;;;3.33;1.02;;;6.70;99.90;;;;;;5076226;28;20099;-52
2024/02/07 01:45:40;;;;;;;2.45;0.98;;;6.60;99.90;;;;;;5068177;28;20103;-56
2024/02/07 01:48:07;;;;;;;4.03;0.80;;;6.60;99.90;;;;;;5068347;28;20067;-50
2024/02/07 01:50:36;;;;;;;4.57;1.30;;;6.50;99.90;;;;;;5074438;28;20016;-53
2024/02/07 01:53:03;;;;;;;2.75;0.73;;;6.40;99.90;;;;;;5084353;28;20020;-51
2024/02/07 01:55:30;;;;;;;3.85;0.82;;;6.30;99.90;;;;;;5068379;28;20025;-53
2024/02/07 01:57:57;;;;;;;1.20;0.70;;;6.20;99.90;;;;;;5067827;28;20037;-52
2024/02/07 02:00:24;;;;;;;4.47;0.90;;;6.10;99.90;;;;;;5067608;28;20336;-53
2024/02/07 02:02:52;;;;;;;4.70;1.00;;;6.00;99.90;;;;;;5067838;28;20017;-53
2024/02/07 02:05:17;;;;;;;5.15;1.15;;;5.90;99.90;;;;;;5082350;28;20225;-53
2024/02/07 02:07:44;;;;;;;5.15;1.45;;;5.90;99.90;;;;;;5067833;28;20020;-53
2024/02/07 02:10:10;;;;;;;5.68;0.80;;;5.80;99.90;;;;;;5067889;28;20021;-54
2024/02/07 02:12:37;;;;;;;2.55;0.73;;;5.80;99.90;;;;;;5067778;28;20024;-53
2024/02/07 02:15:05;;;;;;;3.22;1.45;;;5.70;99.90;;;;;;5067788;28;20095;-53
2024/02/07 02:17:30;;;;;;;3.15;0.77;;;5.70;99.90;;;;;;5072755;28;20024;-51
2024/02/07 02:19:57;;;;;;;1.17;0.77;;;5.60;99.90;;;;;;5078378;28;20057;-51
2024/02/07 02:22:52;;;;;;;6.90;1.70;;;5.60;99.90;;;;;;5067190;28;20095;-50
2024/02/07 02:25:53;;;;;;;1.55;0.80;;;5.60;99.90;;;;;;5075075;28;20474;-52
2024/02/07 02:28:57;;;;;;;5.30;0.93;;;5.60;99.90;;;;;;5067098;28;20028;-50
2024/02/07 02:31:23;;;;;;;5.45;1.27;;;5.50;99.90;;;;;;5059796;28;20028;-50
2024/02/07 02:33:56;;;;;;;3.88;0.90;;;5.50;99.90;;;;;;5066327;28;20066;-50
2024/02/07 02:36:23;;;;;;;3.42;1.20;;;5.50;99.90;;;;;;5066476;28;20016;-50
2024/02/07 02:38:49;;;;;;;2.20;0.80;;;5.50;99.90;;;;;;5073996;28;20332;-53
2024/02/07 02:41:14;;;;;;;4.97;1.13;;;5.50;99.90;;;;;;5074752;28;20062;-51
2024/02/07 02:43:40;;;;;;;6.35;0.80;;;5.50;99.90;;;;;;5074467;28;20032;-50
2024/02/07 02:46:09;;;;;;;7.63;1.10;;;5.50;99.90;;;;;;5075312;28;20039;-50
2024/02/07 02:48:34;;;;;;;3.65;1.10;;;5.50;99.90;;;;;;5073087;28;20104;-50
2024/02/07 02:51:02;;;;;;;10.55;1.23;;;5.50;99.90;;;;;;5066932;28;20390;-49
2024/02/07 02:53:32;;;;;;;7.65;1.08;;;5.50;99.90;;;;;;5069906;28;20106;-49
2024/02/07 02:55:58;;;;;;;1.10;0.98;;;5.40;99.90;;;;;;5068268;28;20074;-49
2024/02/07 02:58:29;;;;;;;3.10;0.88;;;5.30;99.90;;;;;;5071405;28;20028;-50
2024/02/07 03:00:56;;;;;;;6.28;1.05;;;5.20;99.90;;;;;;5077762;28;20020;-52
2024/02/07 03:03:23;;;;;;;4.53;0.82;;;4.90;99.90;;;;;;5066588;28;20512;-49
2024/02/07 03:05:58;;;;;;;1.70;0.70;;;4.80;99.90;;;;;;5067495;28;20016;-49
2024/02/07 03:08:39;;;;;;;15.63;1.50;;;4.70;99.90;;;;;;5059317;28;20028;-51
2024/02/07 03:11:11;;;;;;;1.73;0.70;;;4.60;99.90;;;;;;5067187;28;20127;-51
2024/02/07 03:13:37;;;;;;;5.30;0.82;;;4.60;99.90;;;;;;5079163;28;20024;-49
2024/02/07 03:16:06;;;;;;;8.60;1.65;;;4.60;99.90;;;;;;5072748;28;20027;-51
2024/02/07 03:18:35;;;;;;;3.05;0.70;;;4.60;99.90;;;;;;5067018;28;20021;-49
2024/02/07 03:21:05;;;;;;;2.72;0.80;;;4.60;99.90;;;;;;5081156;28;20024;-50
2024/02/07 03:23:35;;;;;;;1.88;0.77;;;4.50;99.90;;;;;;5066776;28;20074;-49
2024/02/07 03:26:01;;;;;;;4.72;0.80;;;4.40;99.90;;;;;;5067083;28;20397;-53
2024/02/07 03:28:33;;;;;;;8.75;1.23;;;4.40;99.90;;;;;;5066901;28;20463;-50
2024/02/07 03:30:58;;;;;;;7.80;1.00;;;4.40;99.90;;;;;;5066735;28;20473;-50
2024/02/07 03:33:28;;;;;;;1.85;0.70;;;4.40;99.90;;;;;;5066079;28;20058;-49
2024/02/07 03:35:54;;;;;;;2.40;0.85;;;4.30;99.90;;;;;;5066541;28;20025;-51
2024/02/07 03:38:20;;;;;;;3.35;1.20;;;4.30;99.90;;;;;;5064939;28;20052;-49
2024/02/07 03:40:45;;;;;;;4.03;0.98;;;4.20;99.90;;;;;;5066975;28;20091;-52
2024/02/07 03:43:12;;;;;;;2.15;0.80;;;4.20;99.90;;;;;;5071959;28;20665;-49
2024/02/07 03:45:38;;;;;;;4.30;0.80;;;4.20;99.90;;;;;;5073686;28;20070;-49
2024/02/07 03:48:06;;;;;;;4.75;0.98;;;4.10;99.90;;;;;;5066335;28;20029;-49
2024/02/07 03:50:35;;;;;;;3.22;0.80;;;4.00;99.90;;;;;;5065377;28;20048;-50
2024/02/07 03:53:03;;;;;;;1.38;0.60;;;4.00;99.90;;;;;;5075114;28;20028;-51
2024/02/07 03:55:30;;;;;;;5.78;1.10;;;4.00;99.90;;;;;;5068546;28;20036;-50
2024/02/07 03:57:56;;;;;;;4.95;0.80;;;4.00;99.90;;;;;;5082089;28;20025;-50
2024/02/07 04:00:21;;;;;;;4.90;1.02;;;3.90;99.90;;;;;;5080232;28;20520;-49
2024/02/07 04:02:48;;;;;;;6.90;1.38;;;3.90;99.90;;;;;;5079367;28;20062;-52
2024/02/07 04:05:16;;;;;;;3.13;1.17;;;3.80;99.90;;;;;;5066810;28;20025;-49
2024/02/07 04:07:41;;;;;;;7.38;1.13;;;3.80;99.90;;;;;;5066344;28;20069;-49
2024/02/07 04:10:11;;;;;;;5.90;1.13;;;3.80;99.90;;;;;;5072287;28;20103;-50
2024/02/07 05:15:41;;;;;;;18.00;1.90;;;3.60;99.90;;;;;;5074854;28;20026;-53
2024/02/07 05:18:06;;;;;;;17.08;2.45;;;3.70;99.90;;;;;;5082177;28;20028;-49
2024/02/07 05:20:32;;;;;;;6.82;1.75;;;3.70;99.90;;;;;;5074719;28;20107;-49
2024/02/07 05:22:58;;;;;;;15.20;2.85;;;3.70;99.90;;;;;;5066914;28;20119;-49
2024/02/07 05:25:24;;;;;;;12.73;2.08;;;3.70;99.90;;;;;;5076990;28;20035;-49
2024/02/07 05:27:50;;;;;;;7.88;2.05;;;3.70;99.90;;;;;;5078289;28;20400;-49
2024/02/07 05:30:16;;;;;;;11.10;1.83;;;3.70;99.90;;;;;;5068369;28;20116;-49
2024/02/07 05:32:42;;;;;;;10.93;2.20;;;3.70;99.90;;;;;;5068079;28;20040;-48
2024/02/07 05:35:08;;;;;;;10.45;2.30;;;3.70;99.90;;;;;;5073571;28;20151;-50
2024/02/07 05:37:35;;;;;;;9.68;1.70;;;3.70;99.90;;;;;;5076281;28;20487;-50
2024/02/07 05:40:01;;;;;;;13.98;3.20;;;3.70;99.90;;;;;;5076382;28;20035;-49
2024/02/07 05:42:27;;;;;;;12.80;2.08;;;3.70;99.90;;;;;;5076241;28;20400;-51
2024/02/07 05:44:52;;;;;;;15.07;2.88;;;3.70;99.90;;;;;;5071361;28;20031;-53
2024/02/07 05:47:20;;;;;;;9.38;1.98;;;3.70;99.90;;;;;;5073962;28;20028;-54
2024/02/07 05:49:46;;;;;;;15.85;2.78;;;3.70;99.90;;;;;;5077222;28;20024;-53
2024/02/07 05:52:14;;;;;;;17.35;2.17;;;3.70;99.90;;;;;;5076003;28;20468;-54
2024/02/07 05:54:39;;;;;;;7.55;1.67;;;3.70;99.90;;;;;;5076861;28;20016;-54
2024/02/07 05:57:05;;;;;;;9.75;2.55;;;3.70;99.90;;;;;;5079572;28;20036;-50
2024/02/07 05:59:31;;;;;;;9.93;1.92;;;3.70;99.90;;;;;;5073066;28;20029;-53
2024/02/07 06:01:57;;;;;;;16.15;2.25;;;3.80;99.90;;;;;;5067581;28;20032;-53
2024/02/07 06:04:22;;;;;;;13.35;2.10;;;3.80;99.90;;;;;;5071173;28;20397;-53
2024/02/07 06:06:51;;;;;;;11.73;2.33;;;3.80;99.90;;;;;;5078236;28;20032;-55
2024/02/07 06:09:17;;;;;;;18.65;3.63;;;3.80;99.90;;;;;;5067176;28;20031;-55
2024/02/07 06:11:43;;;;;;;13.48;2.50;;;3.80;99.90;;;;;;5073751;28;20024;-55
2024/02/07 06:14:10;;;;;;;15.98;2.80;;;3.80;99.90;;;;;;5077365;28;20050;-56
2024/02/07 06:16:36;;;;;;;9.85;2.25;;;3.80;99.90;;;;;;5072840;28;20024;-55
2024/02/07 06:19:03;;;;;;;12.95;2.50;;;3.80;99.90;;;;;;5077092;28;20415;-55
2024/02/07 06:21:31;;;;;;;14.98;2.28;;;3.80;99.90;;;;;;5072806;28;20097;-54
2024/02/07 06:23:57;;;;;;;13.70;3.83;;;3.80;99.90;;;;;;5072669;28;20028;-55
2024/02/07 06:26:23;;;;;;;7.40;1.85;;;3.80;99.90;;;;;;5072375;28;20046;-54
2024/02/07 06:28:50;;;;;;;16.27;2.40;;;3.80;99.90;;;;;;5071296;28;20024;-55
2024/02/07 06:31:16;;;;;;;16.10;2.60;;;3.80;99.90;;;;;;5077714;28;20013;-54
2024/02/07 06:33:42;;;;;;;12.80;2.40;;;3.80;99.90;;;;;;5069227;28;20327;-55
2024/02/07 06:36:07;;;;;;;9.07;2.20;;;3.80;99.90;;;;;;5072653;28;20402;-54
2024/02/07 06:38:33;;;;;;;26.25;4.18;;;3.80;99.90;;;;;;5072256;28;20047;-55
2024/02/07 06:40:59;;;;;;;13.48;5.03;;;3.80;99.90;;;;;;5072443;28;20106;-54
2024/02/07 06:43:24;;;;;;;16.95;6.30;;;3.90;99.90;;;;;;5066348;28;20101;-55
2024/02/07 06:45:50;;;;;;;29.08;11.02;;;3.80;99.90;;;;;;5071692;28;20103;-55
2024/02/07 06:48:16;;;;;;;28.40;11.13;;;3.90;99.90;;;;;;5070005;28;20386;-51
2024/02/07 06:50:42;;;;;;;26.42;7.53;;;3.90;99.90;;;;;;5075349;28;20047;-51
2024/02/07 06:53:07;;;;;;;23.95;7.65;;;3.90;99.90;;;;;;5067668;28;20024;-52
2024/02/07 06:55:33;;;;;;;27.75;7.45;;;3.90;99.90;;;;;;5079508;28;20016;-51
2024/02/07 06:57:59;;;;;;;28.48;9.27;;;3.90;99.90;;;;;;5079555;28;20016;-52
2024/02/07 07:00:24;;;;;;;33.50;10.18;;;3.90;99.90;;;;;;5072947;28;20028;-54
2024/02/07 07:02:50;;;;;;;31.35;11.40;;;3.90;99.90;;;;;;5075293;28;20025;-53
2024/02/07 07:05:16;;;;;;;28.48;8.18;;;3.90;99.90;;;;;;5072005;28;20075;-53
2024/02/07 07:07:41;;;;;;;20.90;5.97;;;4.00;99.90;;;;;;5076788;28;20552;-54
2024/02/07 07:10:07;;;;;;;15.38;5.38;;;4.00;99.90;;;;;;5066448;28;20547;-54
2024/02/07 07:12:33;;;;;;;21.38;3.85;;;4.00;99.90;;;;;;5065840;28;20071;-53
2024/02/07 07:14:59;;;;;;;24.40;4.63;;;4.00;99.90;;;;;;5066257;28;20490;-53
2024/02/07 07:17:24;;;;;;;12.13;4.28;;;4.10;99.90;;;;;;5067553;28;20324;-53
2024/02/07 07:19:50;;;;;;;15.73;3.60;;;4.10;99.90;;;;;;5065633;28;20458;-54
2024/02/07 07:22:15;;;;;;;19.48;4.18;;;4.10;99.90;;;;;;5076011;28;20036;-53
2024/02/07 07:24:41;;;;;;;14.02;3.30;;;4.10;99.90;;;;;;5073562;28;20162;-52
2024/02/07 07:27:07;;;;;;;13.10;4.07;;;4.10;99.90;;;;;;5066102;28;20062;-52
2024/02/07 07:29:32;;;;;;;24.60;4.38;;;4.10;99.90;;;;;;5063817;28;20028;-51
2024/02/07 07:31:59;;;;;;;15.05;4.05;;;4.20;99.90;;;;;;5064953;28;20044;-53
2024/02/07 07:34:25;;;;;;;19.20;3.90;;;4.20;99.90;;;;;;5070432;28;20170;-52
2024/02/07 07:36:53;;;;;;;15.88;3.22;;;4.20;99.90;;;;;;5070668;28;20584;-52
2024/02/07 07:39:19;;;;;;;19.92;3.15;;;4.20;99.90;;;;;;5068110;28;20036;-52
2024/02/07 07:41:44;;;;;;;19.17;3.75;;;4.20;99.90;;;;;;5075767;28;20052;-53
2024/02/07 07:44:10;;;;;;;20.95;4.72;;;4.20;99.90;;;;;;5075395;28;20020;-50
2024/02/07 07:46:36;;;;;;;11.88;3.05;;;4.20;99.90;;;;;;5078334;28;20054;-52
2024/02/07 07:49:01;;;;;;;21.02;4.20;;;4.20;99.90;;;;;;5069202;28;20115;-53
2024/02/07 07:51:27;;;;;;;15.15;3.00;;;4.20;99.90;;;;;;5075951;28;20657;-52
2024/02/07 07:53:54;;;;;;;15.55;3.60;;;4.20;99.90;;;;;;5075781;28;20023;-53
2024/02/07 07:56:20;;;;;;;20.17;4.72;;;4.20;99.90;;;;;;5071368;28;20044;-52
2024/02/07 07:58:49;;;;;;;17.38;4.90;;;4.20;99.90;;;;;;5077407;28;20095;-52
2024/02/07 08:01:15;;;;;;;22.40;5.38;;;4.20;99.90;;;;;;5080579;28;20458;-54
2024/02/07 08:03:41;;;;;;;15.88;4.70;;;4.30;99.90;;;;;;5078934;28;20460;-52
2024/02/07 08:06:11;;;;;;;18.70;5.10;;;4.30;99.90;;;;;;5070427;28;20021;-53
2024/02/07 08:08:37;;;;;;;14.60;4.78;;;4.30;99.90;;;;;;5072453;28;20024;-53
2024/02/07 08:11:03;;;;;;;28.20;5.82;;;4.30;99.90;;;;;;5076576;28;20035;-52
2024/02/07 08:13:29;;;;;;;20.05;5.28;;;4.40;99.90;;;;;;5075605;28;20031;-54
2024/02/07 08:15:55;;;;;;;18.90;5.53;;;4.30;99.90;;;;;;5078795;28;20030;-52
2024/02/07 08:18:20;;;;;;;18.83;4.85;;;4.30;99.90;;;;;;5074269;28;20291;-52
2024/02/07 08:20:46;;;;;;;19.77;5.05;;;4.30;99.90;;;;;;5073046;28;20046;-53
2024/02/07 08:23:12;;;;;;;23.23;5.47;;;4.40;99.90;;;;;;5074494;28;20111;-53
2024/02/07 08:25:38;;;;;;;19.40;3.97;;;4.40;99.90;;;;;;5076304;28;20417;-54
2024/02/07 08:28:04;;;;;;;21.77;4.30;;;4.40;99.90;;;;;;5080149;28;20031;-53
2024/02/07 08:30:29;;;;;;;25.98;5.10;;;4.40;99.90;;;;;;5073712;28;20021;-53
2024/02/07 08:32:56;;;;;;;31.73;4.30;;;4.50;99.90;;;;;;5068902;28;20045;-53
2024/02/07 08:35:21;;;;;;;33.42;5.03;;;4.40;99.90;;;;;;5077883;28;20024;-52
2024/02/07 08:37:47;;;;;;;15.80;3.50;;;4.50;99.90;;;;;;5072139;28;20031;-53
2024/02/07 08:40:13;;;;;;;21.23;4.28;;;4.50;99.90;;;;;;5074124;28;20492;-53
2024/02/07 08:42:38;;;;;;;19.15;3.35;;;4.60;99.90;;;;;;5072205;28;20115;-53
2024/02/07 08:45:05;;;;;;;18.98;4.28;;;4.60;99.90;;;;;;5068614;28;20103;-54
2024/02/07 08:47:30;;;;;;;19.08;3.55;;;4.60;99.90;;;;;;5069144;28;20078;-50
2024/02/07 08:49:56;;;;;;;20.75;3.33;;;4.60;99.90;;;;;;5074120;28;20119;-53
2024/02/07 08:52:22;;;;;;;15.98;3.25;;;4.60;99.90;;;;;;5075937;28;20050;-52
2024/02/07 08:54:48;;;;;;;15.60;3.38;;;4.60;99.90;;;;;;5076194;28;20020;-54
2024/02/07 08:57:13;;;;;;;27.48;4.40;;;4.60;99.90;;;;;;5072449;28;20674;-53
2024/02/07 08:59:39;;;;;;;21.40;4.38;;;4.70;99.90;;;;;;5073199;28;20043;-52
2024/02/07 09:02:07;;;;;;;26.23;4.47;;;4.70;99.90;;;;;;5077949;28;20241;-52
2024/02/07 09:04:32;;;;;;;19.90;3.45;;;4.70;99.90;;;;;;5072993;28;20485;-50
2024/02/07 09:06:58;;;;;;;28.65;4.30;;;4.70;99.90;;;;;;5073546;28;20039;-53
2024/02/07 09:09:24;;;;;;;25.15;4.20;;;4.70;99.90;;;;;;5071389;28;20106;-52
2024/02/07 09:11:50;;;;;;;25.77;3.75;;;4.60;99.90;;;;;;5064462;28;20025;-50
2024/02/07 09:14:15;;;;;;;18.50;3.92;;;4.60;99.90;;;;;;5071854;28;20078;-49
2024/02/07 09:16:42;;;;;;;23.95;5.40;;;4.60;99.90;;;;;;5076293;28;20033;-51
2024/02/07 09:19:08;;;;;;;23.88;3.75;;;4.60;99.90;;;;;;5071601;28;20020;-50
2024/02/07 09:21:34;;;;;;;18.92;3.38;;;4.70;99.90;;;;;;5071802;28;20094;-51
2024/02/07 09:24:00;;;;;;;22.88;4.15;;;4.80;99.90;;;;;;5074549;28;20029;-50
2024/02/07 09:26:32;;;;;;;22.70;4.43;;;4.80;99.90;;;;;;5072170;28;20035;-52
2024/02/07 09:28:58;;;;;;;33.17;4.40;;;4.90;99.90;;;;;;5076013;28;20062;-50
2024/02/07 09:31:24;;;;;;;26.70;3.83;;;4.90;99.90;;;;;;5068843;28;20456;-52
2024/02/07 09:33:49;;;;;;;23.75;4.18;;;4.90;99.90;;;;;;5070965;28;20099;-53
2024/02/07 09:36:15;;;;;;;23.13;4.03;;;5.00;99.90;;;;;;5075546;28;20027;-53
2024/02/07 09:38:40;;;;;;;26.17;4.97;;;5.10;99.90;;;;;;5077309;28;20036;-50
2024/02/07 09:41:08;;;;;;;21.13;4.40;;;5.20;99.90;;;;;;5078522;28;20134;-53
2024/02/07 09:43:34;;;;;;;22.05;4.32;;;5.30;99.90;;;;;;5081976;28;20023;-50
2024/02/07 09:46:00;;;;;;;21.27;4.18;;;5.50;99.90;;;;;;5075927;28;20338;-53
2024/02/07 09:48:27;;;;;;;23.90;4.30;;;5.70;99.90;;;;;;5077784;28;20032;-54
2024/02/07 09:50:54;;;;;;;20.85;3.85;;;5.80;99.90;;;;;;5079596;28;20021;-52
2024/02/07 09:53:24;;;;;;;20.83;3.72;;;6.00;99.90;;;;;;5077364;28;20475;-53
2024/02/07 09:55:52;;;;;;;21.63;3.55;;;6.20;99.90;;;;;;5081540;28;20023;-54
2024/02/07 09:58:22;;;;;;;16.08;3.70;;;6.40;99.90;;;;;;5078458;28;20315;-54
2024/02/07 10:00:54;;;;;;;17.40;3.47;;;6.60;99.90;;;;;;5074492;28;20036;-54
2024/02/07 10:03:24;;;;;;;19.15;3.88;;;6.70;99.90;;;;;;5070020;28;20105;-54
2024/02/07 10:06:00;;;;;;;22.23;3.78;;;6.80;99.90;;;;;;5074171;28;20130;-54
2024/02/07 10:08:26;;;;;;;37.42;5.30;;;6.80;99.90;;;;;;5069104;28;20024;-50
2024/02/07 10:10:53;;;;;;;22.65;3.33;;;6.70;99.90;;;;;;5070656;28;20312;-53
2024/02/07 10:13:19;;;;;;;23.75;4.00;;;6.60;99.90;;;;;;5070656;28;20017;-54
2024/02/07 10:15:47;;;;;;;16.73;3.85;;;6.70;99.90;;;;;;5066144;28;20509;-53
2024/02/07 10:18:12;;;;;;;16.52;3.60;;;6.80;99.90;;;;;;5071226;28;20103;-52
2024/02/07 10:20:38;;;;;;;22.95;4.32;;;6.80;99.90;;;;;;5071333;28;20124;-52
2024/02/07 10:23:07;;;;;;;26.00;4.32;;;6.80;99.90;;;;;;5072435;28;20529;-50
2024/02/07 10:25:33;;;;;;;18.17;3.85;;;6.80;99.90;;;;;;5070720;28;20029;-52
2024/02/07 10:28:06;;;;;;;19.98;4.35;;;7.00;99.90;;;;;;5069997;28;20020;-53
2024/02/07 10:30:32;;;;;;;23.00;3.78;;;7.00;99.90;;;;;;5066312;28;20043;-53
2024/02/07 10:32:58;;;;;;;22.75;4.13;;;7.10;99.90;;;;;;5069237;28;20020;-53
2024/02/07 10:35:24;;;;;;;20.20;4.30;;;7.10;99.90;;;;;;5074575;28;20412;-50
2024/02/07 10:37:53;;;;;;;29.40;4.40;;;7.30;99.90;;;;;;5069789;28;20078;-52
2024/02/07 10:40:20;;;;;;;17.17;4.32;;;7.50;99.90;;;;;;5061412;28;20027;-52
2024/02/07 10:42:58;;;;;;;23.40;3.00;;;7.60;99.90;;;;;;5067833;28;20155;-50
2024/02/07 10:45:24;;;;;;;19.88;4.68;;;7.50;99.90;;;;;;5065024;28;20498;-51
2024/02/07 10:47:53;;;;;;;13.68;3.03;;;7.80;99.90;;;;;;5074350;28;20067;-50
2024/02/07 10:50:23;;;;;;;12.75;3.42;;;8.00;99.90;;;;;;5061182;28;20108;-51
2024/02/07 10:52:49;;;;;;;15.35;3.40;;;8.30;99.90;;;;;;5071488;28;20095;-53
2024/02/07 10:55:16;;;;;;;12.23;2.85;;;8.30;99.90;;;;;;5071923;28;20493;-51
2024/02/07 10:57:50;;;;;;;20.92;3.42;;;8.30;99.90;;;;;;5066435;28;20075;-53
2024/02/07 11:00:17;;;;;;;19.42;2.90;;;8.20;99.90;;;;;;5069543;28;20027;-53
2024/02/07 11:02:45;;;;;;;17.63;4.15;;;8.10;99.90;;;;;;5067794;28;20028;-52
2024/02/07 11:05:12;;;;;;;20.73;4.40;;;7.90;99.90;;;;;;5068587;28;20040;-53
2024/02/07 11:07:38;;;;;;;20.23;4.32;;;7.80;99.90;;;;;;5072513;28;20021;-49
2024/02/07 11:10:05;;;;;;;29.33;4.43;;;7.50;99.90;;;;;;5074193;28;20093;-53
2024/02/07 11:12:31;;;;;;;19.45;4.70;;;7.50;99.90;;;;;;5065001;28;20016;-53
2024/02/07 11:14:58;;;;;;;18.95;3.97;;;7.40;99.90;;;;;;5071790;28;20020;-54
2024/02/07 11:17:24;;;;;;;15.82;3.45;;;7.30;99.90;;;;;;5064958;28;20437;-54
2024/02/07 11:19:50;;;;;;;19.15;3.78;;;7.20;99.90;;;;;;5071253;28;20032;-54
2024/02/07 11:22:23;;;;;;;16.40;3.95;;;7.20;99.90;;;;;;5066174;28;20078;-53
2024/02/07 11:24:51;;;;;;;20.88;4.63;;;7.20;99.90;;;;;;5071158;28;20105;-54
2024/02/07 11:27:17;;;;;;;17.50;3.88;;;7.10;99.90;;;;;;5066841;28;20025;-52
2024/02/07 11:29:44;;;;;;;14.80;4.13;;;7.10;99.90;;;;;;5070302;28;20102;-53
2024/02/07 11:32:10;;;;;;;13.50;2.90;;;7.20;99.90;;;;;;5071852;28;20021;-53
2024/02/07 11:34:42;;;;;;;16.73;3.17;;;7.10;99.90;;;;;;5072983;28;20024;-54
2024/02/07 11:37:11;;;;;;;15.73;3.20;;;7.10;99.90;;;;;;5076146;28;20251;-55
2024/02/07 11:39:38;;;;;;;21.70;4.20;;;7.10;99.90;;;;;;5075655;28;20036;-54
2024/02/07 11:42:12;;;;;;;22.33;3.67;;;7.10;99.90;;;;;;5071387;28;20058;-54
2024/02/07 11:44:49;;;;;;;24.67;3.92;;;7.20;99.90;;;;;;5072943;28;20066;-52
2024/02/07 11:47:43;;;;;;;18.42;4.20;;;7.10;99.90;;;;;;5073924;28;20025;-54
2024/02/07 11:50:14;;;;;;;15.75;3.33;;;7.30;99.90;;;;;;5074019;28;20498;-50
2024/02/07 11:52:40;;;;;;;;;;;7.30;99.90;;;;;;5072001;28;20111;-51
2024/02/07 11:55:17;;;;;;;20.77;3.72;;;7.40;99.90;;;;;;5072324;28;19908;-51
2024/02/07 11:57:51;;;;;;;19.40;4.40;;;7.60;99.90;;;;;;5075662;28;20315;-53
2024/02/07 12:00:19;;;;;;;19.20;3.40;;;7.90;99.90;;;;;;5074815;28;20541;-51
2024/02/07 12:02:49;;;;;;;15.75;3.25;;;8.20;99.90;;;;;;5070481;28;20024;-51
2024/02/07 12:05:19;;;;;;;23.88;4.00;;;8.70;99.90;;;;;;5071147;28;20032;-53
2024/02/07 12:07:47;;;;;;;16.77;3.70;;;9.20;99.90;;;;;;5071337;28;20389;-53
2024/02/07 12:10:13;;;;;;;14.45;3.80;;;9.50;99.90;;;;;;5071206;28;20012;-55
2024/02/07 12:12:39;;;;;;;13.63;2.97;;;10.00;99.90;;;;;;5069295;28;20111;-56
2024/02/07 12:15:05;;;;;;;11.80;3.15;;;10.00;99.90;;;;;;5070967;28;20035;-55
2024/02/07 12:17:33;;;;;;;15.25;3.38;;;10.00;99.90;;;;;;5072947;28;20021;-53
2024/02/07 12:20:01;;;;;;;17.73;3.72;;;10.10;99.90;;;;;;5073436;28;20488;-55
2024/02/07 12:22:35;;;;;;;12.52;3.13;;;10.20;99.90;;;;;;5070322;28;20469;-54
2024/02/07 12:25:02;;;;;;;14.00;3.33;;;10.40;99.90;;;;;;5071845;28;20052;-55
2024/02/07 12:27:29;;;;;;;23.13;5.25;;;10.70;99.90;;;;;;5071749;28;20028;-55
2024/02/07 12:29:56;;;;;;;13.23;2.67;;;10.50;99.90;;;;;;5070052;28;20317;-54
2024/02/07 12:32:23;;;;;;;20.30;3.50;;;10.20;99.90;;;;;;5071323;28;20020;-53
2024/02/07 12:34:49;;;;;;;9.52;2.80;;;9.90;99.90;;;;;;5070547;28;20029;-52
2024/02/07 12:37:17;;;;;;;18.98;3.80;;;9.70;99.90;;;;;;5073865;28;20021;-55
2024/02/07 12:39:46;;;;;;;15.20;3.75;;;9.40;99.90;;;;;;5068021;28;20418;-52
2024/02/07 12:42:17;;;;;;;22.75;3.47;;;9.30;99.90;;;;;;5070228;28;20024;-53
2024/02/07 12:44:43;;;;;;;16.30;2.53;;;9.20;99.90;;;;;;5069802;28;20576;-51
2024/02/07 12:47:11;;;;;;;16.38;3.65;;;9.20;99.90;;;;;;5071007;28;20107;-54
2024/02/07 12:49:37;;;;;;;12.82;2.78;;;9.10;99.90;;;;;;5071408;28;20315;-54
2024/02/07 12:52:04;;;;;;;14.30;4.13;;;9.00;99.90;;;;;;5071207;28;20012;-54
2024/02/07 12:54:29;;;;;;;14.10;2.75;;;9.00;99.90;;;;;;5072332;28;20082;-52
2024/02/07 12:56:55;;;;;;;11.07;2.65;;;9.00;99.90;;;;;;5070820;28;20028;-52
2024/02/07 12:59:32;;;;;;;8.20;2.53;;;8.90;99.90;;;;;;5072460;28;20032;-54
2024/02/07 13:02:02;;;;;;;10.13;2.63;;;8.90;99.90;;;;;;5072184;28;20025;-53
2024/02/07 13:04:31;;;;;;;14.95;3.33;;;8.90;99.90;;;;;;5070372;28;20492;-54
2024/02/07 13:06:58;;;;;;;9.55;2.15;;;8.70;99.90;;;;;;5073584;28;20532;-54
2024/02/07 13:09:25;;;;;;;16.50;3.55;;;8.60;99.90;;;;;;5070382;28;20088;-54
2024/02/07 13:11:51;;;;;;;13.60;2.63;;;8.50;99.90;;;;;;5070590;28;20023;-53
2024/02/07 13:14:16;;;;;;;10.43;2.60;;;8.50;99.90;;;;;;5068713;28;20374;-55
2024/02/07 13:16:43;;;;;;;11.13;2.78;;;8.40;99.90;;;;;;5069241;28;20031;-54
2024/02/07 13:19:12;;;;;;;21.45;3.88;;;8.40;99.90;;;;;;5067363;28;20515;-52
2024/02/07 13:21:41;;;;;;;11.60;2.25;;;8.50;99.90;;;;;;5068415;28;20027;-53
2024/02/07 13:24:17;;;;;;;13.50;2.78;;;8.40;99.90;;;;;;5070090;28;20361;-53
2024/02/07 13:26:44;;;;;;;12.57;2.88;;;8.30;99.90;;;;;;5069795;28;20020;-53
2024/02/07 13:29:10;;;;;;;8.38;2.67;;;8.10;99.90;;;;;;5070101;28;20020;-51
2024/02/07 13:31:37;;;;;;;16.25;3.55;;;8.10;99.90;;;;;;5054071;28;20008;-53
2024/02/07 13:34:02;;;;;;;13.88;2.65;;;7.90;99.90;;;;;;5068386;28;20127;-53
2024/02/07 13:36:30;;;;;;;19.08;3.03;;;7.80;99.90;;;;;;5069477;28;20103;-52
2024/02/07 13:38:55;;;;;;;9.73;2.42;;;7.60;99.90;;;;;;5070451;28;20123;-53
2024/02/07 13:41:21;;;;;;;12.43;2.90;;;7.60;99.90;;;;;;5069580;28;20091;-52
2024/02/07 13:43:47;;;;;;;8.70;2.78;;;7.50;99.90;;;;;;5069429;28;20046;-53
2024/02/07 13:46:12;;;;;;;11.82;2.88;;;7.50;99.90;;;;;;5070025;28;20059;-53
2024/02/07 13:48:38;;;;;;;9.30;2.50;;;7.50;99.90;;;;;;5069299;28;20100;-53
2024/02/07 13:51:08;;;;;;;20.13;3.10;;;7.60;99.90;;;;;;5070156;28;20028;-52
2024/02/07 13:53:34;;;;;;;14.50;3.42;;;7.70;99.90;;;;;;5067229;28;20013;-53